Time;durP1;ratioP1;P1;durP2;ratioP2;P2;SDS_P1;SDS_P2;PMS_P1;PMS_P2;Temp;Humidity;BMP_temperature;BMP_pressure;BME280_temperature;BME280_humidity;BME280_pressure;Samples;Min_cycle;Max_cycle;Signal;HPM_P1;HPM_P2
2022/10/10 00:00:04;;;;;;;;;;;11.10;99.90;;;;;;5033193;28;19909;-70
2022/10/10 00:02:30;;;;;;;;;;;11.10;99.90;;;;;;5034235;28;19909;-69
2022/10/10 00:04:55;;;;;;;;;;;11.10;99.90;;;;;;5034676;28;19909;-69
2022/10/10 00:07:21;;;;;;;;;;;11.10;99.90;;;;;;5033077;28;20384;-69
2022/10/10 00:09:46;;;;;;;;;;;11.10;99.90;;;;;;5045817;28;19909;-69
2022/10/10 00:12:11;;;;;;;;;;;11.10;99.90;;;;;;5034347;28;19970;-68
2022/10/10 00:14:37;;;;;;;;;;;11.10;99.90;;;;;;5032529;28;20290;-69
2022/10/10 00:17:04;;;;;;;;;;;11.10;99.90;;;;;;5034778;28;20031;-68
2022/10/10 00:19:29;;;;;;;;;;;11.10;99.90;;;;;;5034365;28;20006;-70
2022/10/10 00:21:54;;;;;;;;;;;11.10;99.90;;;;;;5029637;28;19915;-67
2022/10/10 00:24:20;;;;;;;;;;;11.10;99.90;;;;;;5026518;28;20259;-68
2022/10/10 00:26:45;;;;;;;;;;;11.10;99.90;;;;;;5034098;28;19999;-68
2022/10/10 00:29:11;;;;;;;;;;;11.10;99.90;;;;;;5034335;28;19905;-67
2022/10/10 00:31:36;;;;;;;;;;;11.10;99.90;;;;;;5034123;28;19909;-69
2022/10/10 00:34:02;;;;;;;;;;;11.10;99.90;;;;;;5034070;28;20325;-69
2022/10/10 00:36:27;;;;;;;;;;;11.00;99.90;;;;;;5033795;28;19912;-69
2022/10/10 00:38:53;;;;;;;;;;;11.10;99.90;;;;;;5033981;28;19905;-69
2022/10/10 00:41:18;;;;;;;;;;;11.00;99.90;;;;;;5033964;28;19909;-68
2022/10/10 00:43:59;;;;;;;;;;;11.00;99.90;;;;;;5034060;28;19913;-69
2022/10/10 00:46:25;;;;;;;;;;;11.00;99.90;;;;;;5034501;28;19959;-69
2022/10/10 00:48:50;;;;;;;;;;;11.00;99.90;;;;;;5033544;28;20372;-70
2022/10/10 00:51:17;;;;;;;;;;;11.00;99.90;;;;;;5033836;28;19912;-70
2022/10/10 00:53:44;;;;;;;;;;;11.00;99.90;;;;;;5033620;28;19905;-70
2022/10/10 00:56:11;;;;;;;;;;;11.00;99.90;;;;;;5033753;28;19924;-70
2022/10/10 00:58:39;;;;;;;;;;;10.90;99.90;;;;;;5033679;28;19944;-69
2022/10/10 01:01:05;;;;;;;;;;;10.90;99.90;;;;;;5033826;28;19916;-69
2022/10/10 01:03:31;;;;;;;;;;;10.90;99.90;;;;;;5032042;28;19913;-70
2022/10/10 01:05:56;;;;;;;;;;;10.90;99.90;;;;;;5033696;28;20263;-68
2022/10/10 01:08:22;;;;;;;;;;;10.90;99.90;;;;;;5032322;28;19905;-68
2022/10/10 01:11:00;;;;;;;;;;;10.90;99.90;;;;;;5033356;28;19909;-68
2022/10/10 01:13:28;;;;;;;;;;;10.90;99.90;;;;;;5033546;28;19967;-68
2022/10/10 01:15:58;;;;;;;;;;;10.90;99.90;;;;;;5032977;28;20396;-70
2022/10/10 01:18:23;;;;;;;;;;;10.90;99.90;;;;;;5028175;28;19905;-69
2022/10/10 01:20:49;;;;;;;;;;;10.90;99.90;;;;;;5033969;28;19913;-69
2022/10/10 01:23:23;;;;;;;;;;;10.90;99.90;;;;;;5033863;28;19920;-69
2022/10/10 01:26:01;;;;;;;;;;;10.90;99.90;;;;;;5033340;28;19905;-68
2022/10/10 01:28:42;;;;;;;;;;;10.90;99.90;;;;;;5032114;28;19911;-68
2022/10/10 01:31:09;;;;;;;;;;;10.90;99.90;;;;;;5031706;28;19920;-69
2022/10/10 01:33:42;;;;;;;;;;;10.90;99.90;;;;;;5033062;28;19990;-68
2022/10/10 01:36:18;;;;;;;;;;;10.90;99.90;;;;;;5028932;28;20000;-70
2022/10/10 01:38:53;;;;;;;;;;;10.90;99.90;;;;;;5026995;28;20393;-70
2022/10/10 01:41:40;;;;;;;;;;;10.90;99.90;;;;;;5031828;28;20373;-68
2022/10/10 01:44:05;;;;;;;;;;;10.90;99.90;;;;;;5032909;28;19935;-69
2022/10/10 01:46:31;;;;;;;;;;;10.80;99.90;;;;;;5032311;28;19991;-70
2022/10/10 01:48:57;;;;;;;;;;;10.90;99.90;;;;;;5026805;28;20030;-70
2022/10/10 01:51:23;;;;;;;;;;;10.90;99.90;;;;;;5032858;28;19916;-70
2022/10/10 01:53:51;;;;;;;;;;;10.80;99.90;;;;;;5030944;28;19995;-70
2022/10/10 01:56:17;;;;;;;;;;;10.80;99.90;;;;;;5037710;28;19920;-69
2022/10/10 01:58:42;;;;;;;;;;;10.80;99.90;;;;;;5040031;28;20011;-69
2022/10/10 02:01:23;;;;;;;;;;;10.70;99.90;;;;;;5040544;28;19952;-70
2022/10/10 02:04:08;;;;;;;;;;;10.70;99.90;;;;;;5037789;28;20416;-69
2022/10/10 02:06:39;;;;;;;;;;;10.70;99.90;;;;;;5038554;28;19905;-69
2022/10/10 02:09:08;;;;;;;;;;;10.70;99.90;;;;;;5037942;28;19905;-69
2022/10/10 02:11:36;;;;;;;;;;;10.70;99.90;;;;;;5036222;28;19917;-67
2022/10/10 02:14:07;;;;;;;;;;;10.70;99.90;;;;;;5039191;28;19912;-68
2022/10/10 02:16:34;;;;;;;;;;;10.60;99.90;;;;;;5035737;28;19912;-67
2022/10/10 02:19:01;;;;;;;;;;;10.60;99.90;;;;;;5037992;28;20369;-71
2022/10/10 02:21:27;;;;;;;;;;;10.60;99.90;;;;;;5035573;28;19916;-69
2022/10/10 02:23:54;;;;;;;;;;;10.50;99.90;;;;;;5040286;28;19920;-69
2022/10/10 02:26:20;;;;;;;;;;;10.50;99.90;;;;;;5040542;28;19904;-70
2022/10/10 02:28:48;;;;;;;;;;;10.50;99.90;;;;;;5039981;28;20499;-70
2022/10/10 02:31:16;;;;;;;;;;;10.50;99.90;;;;;;5040663;28;19909;-69
2022/10/10 02:33:46;;;;;;;;;;;10.40;99.90;;;;;;5038740;28;20511;-68
2022/10/10 02:36:13;;;;;;;;;;;10.40;99.90;;;;;;5041365;28;19995;-68
2022/10/10 02:38:40;;;;;;;;;;;10.40;99.90;;;;;;5041487;28;19955;-67
2022/10/10 02:41:08;;;;;;;;;;;10.30;99.90;;;;;;5044869;28;19916;-68
2022/10/10 02:43:33;;;;;;;;;;;10.30;99.90;;;;;;5043183;28;20332;-69
2022/10/10 02:46:01;;;;;;;;;;;10.30;99.90;;;;;;5058840;28;19905;-68
2022/10/10 02:48:26;;;;;;;;;;;10.30;99.90;;;;;;5045906;28;19909;-69
2022/10/10 02:50:52;;;;;;;;;;;10.30;99.90;;;;;;5040620;28;19909;-69
2022/10/10 02:53:17;;;;;;;;;;;10.30;99.90;;;;;;5040857;28;19909;-70
2022/10/10 02:55:43;;;;;;;;;;;10.20;99.90;;;;;;5044766;28;19928;-69
2022/10/10 02:58:09;;;;;;;;;;;10.20;99.90;;;;;;5043550;28;19912;-68
2022/10/10 03:00:34;;;;;;;;;;;10.20;99.90;;;;;;5042979;28;19905;-70
2022/10/10 03:03:00;;;;;;;;;;;10.10;99.90;;;;;;5041869;28;19954;-67
2022/10/10 03:05:25;;;;;;;;;;;10.10;99.90;;;;;;5036367;28;19913;-68
2022/10/10 03:07:51;;;;;;;;;;;10.10;99.90;;;;;;5036351;28;19979;-67
2022/10/10 03:10:16;;;;;;;;;;;10.10;99.90;;;;;;5035743;28;20302;-69
2022/10/10 03:12:42;;;;;;;;;;;10.00;99.90;;;;;;5035566;28;19924;-70
2022/10/10 03:15:07;;;;;;;;;;;10.00;99.90;;;;;;5035957;28;19905;-71
2022/10/10 03:17:33;;;;;;;;;;;10.00;99.90;;;;;;5035988;28;19909;-69
2022/10/10 03:19:58;;;;;;;;;;;10.00;99.90;;;;;;5035526;28;19905;-69
2022/10/10 03:22:24;;;;;;;;;;;10.00;99.90;;;;;;5035990;28;19905;-69
2022/10/10 03:24:49;;;;;;;;;;;10.00;99.90;;;;;;5035174;28;19917;-68
2022/10/10 03:27:15;;;;;;;;;;;10.00;99.90;;;;;;5035681;28;19905;-69
2022/10/10 03:29:40;;;;;;;;;;;10.00;99.90;;;;;;5035796;28;19992;-70
2022/10/10 03:32:05;;;;;;;;;;;10.00;99.90;;;;;;5035701;28;19905;-69
2022/10/10 03:34:31;;;;;;;;;;;9.90;99.90;;;;;;5035221;28;19950;-68
2022/10/10 03:36:56;;;;;;;;;;;9.90;99.90;;;;;;5035554;28;20438;-69
2022/10/10 03:39:22;;;;;;;;;;;9.90;99.90;;;;;;5035092;28;19932;-68
2022/10/10 03:41:49;;;;;;;;;;;9.90;99.90;;;;;;5035711;28;19937;-68
2022/10/10 03:44:14;;;;;;;;;;;9.90;99.90;;;;;;5035645;28;19974;-68
2022/10/10 03:46:40;;;;;;;;;;;9.90;99.90;;;;;;5034577;28;20430;-69
2022/10/10 03:49:05;;;;;;;;;;;9.80;99.90;;;;;;5035307;28;19911;-68
2022/10/10 03:51:31;;;;;;;;;;;9.80;99.90;;;;;;5035469;28;20360;-69
2022/10/10 03:53:56;;;;;;;;;;;9.80;99.90;;;;;;5035471;28;19911;-69
2022/10/10 03:56:21;;;;;;;;;;;9.80;99.90;;;;;;5035499;28;20275;-69
2022/10/10 03:58:47;;;;;;;;;;;9.70;99.90;;;;;;5033774;28;19940;-68
2022/10/10 04:01:12;;;;;;;;;;;9.80;99.90;;;;;;5035439;28;19935;-68
2022/10/10 04:03:38;;;;;;;;;;;9.70;99.90;;;;;;5034152;28;19996;-68
2022/10/10 04:06:04;;;;;;;;;;;9.70;99.90;;;;;;5034159;28;20461;-71
2022/10/10 04:08:30;;;;;;;;;;;9.70;99.90;;;;;;5034479;28;20370;-71
2022/10/10 04:10:56;;;;;;;;;;;9.70;99.90;;;;;;5034582;28;19967;-68
2022/10/10 04:13:22;;;;;;;;;;;9.60;99.90;;;;;;5034729;28;20351;-67
2022/10/10 04:15:51;;;;;;;;;;;9.60;99.90;;;;;;5034754;28;20417;-68
2022/10/10 04:18:17;;;;;;;;;;;9.60;99.90;;;;;;5033451;28;19959;-68
2022/10/10 04:20:42;;;;;;;;;;;9.60;99.90;;;;;;5034864;28;19929;-68
2022/10/10 04:23:07;;;;;;;;;;;9.60;99.90;;;;;;5034399;28;19912;-68
2022/10/10 04:25:33;;;;;;;;;;;9.60;99.90;;;;;;5034372;28;20322;-68
2022/10/10 04:27:58;;;;;;;;;;;9.60;99.90;;;;;;5034673;28;19909;-69
2022/10/10 04:30:24;;;;;;;;;;;9.60;99.90;;;;;;5034789;28;19908;-70
2022/10/10 04:32:49;;;;;;;;;;;9.60;99.90;;;;;;5034665;28;19983;-69
2022/10/10 04:35:15;;;;;;;;;;;9.50;99.90;;;;;;5034519;28;19964;-69
2022/10/10 04:37:40;;;;;;;;;;;9.50;99.90;;;;;;5034610;28;19916;-69
2022/10/10 04:40:06;;;;;;;;;;;9.50;99.90;;;;;;5034357;28;19905;-69
2022/10/10 04:42:31;;;;;;;;;;;9.50;99.90;;;;;;5033014;28;20000;-68
2022/10/10 04:44:57;;;;;;;;;;;9.50;99.90;;;;;;5034403;28;19909;-69
2022/10/10 04:47:22;;;;;;;;;;;9.50;99.90;;;;;;5034235;28;19911;-68
2022/10/10 04:49:48;;;;;;;;;;;9.50;99.90;;;;;;5034160;28;19928;-69
2022/10/10 04:52:14;;;;;;;;;;;9.50;99.90;;;;;;5033684;28;19952;-69
2022/10/10 04:54:39;;;;;;;;;;;9.50;99.90;;;;;;5033529;28;20293;-68
2022/10/10 04:57:05;;;;;;;;;;;9.50;99.90;;;;;;5033762;28;19909;-68
2022/10/10 04:59:30;;;;;;;;;;;9.50;99.90;;;;;;5033400;28;19963;-67
2022/10/10 05:01:56;;;;;;;;;;;9.50;99.90;;;;;;5033411;28;19908;-68
2022/10/10 05:04:21;;;;;;;;;;;9.50;99.90;;;;;;5033517;28;20293;-68
2022/10/10 05:06:47;;;;;;;;;;;9.50;99.90;;;;;;5033167;28;19913;-68
2022/10/10 05:09:12;;;;;;;;;;;9.50;99.90;;;;;;5032095;28;19913;-69
2022/10/10 05:11:38;;;;;;;;;;;9.50;99.90;;;;;;5033543;28;19971;-69
2022/10/10 05:14:03;;;;;;;;;;;9.40;99.90;;;;;;5033439;28;20378;-70
2022/10/10 05:16:29;;;;;;;;;;;9.50;99.90;;;;;;5034035;28;19909;-70
2022/10/10 05:18:56;;;;;;;;;;;9.40;99.90;;;;;;5033663;28;19951;-69
2022/10/10 05:21:22;;;;;;;;;;;9.40;99.90;;;;;;5033244;28;19913;-71
2022/10/10 05:23:48;;;;;;;;;;;9.40;99.90;;;;;;5033763;28;19924;-69
2022/10/10 05:26:13;;;;;;;;;;;9.40;99.90;;;;;;5033738;28;20278;-68
2022/10/10 05:28:38;;;;;;;;;;;9.40;99.90;;;;;;5033360;28;19934;-68
2022/10/10 05:31:04;;;;;;;;;;;9.30;99.90;;;;;;5032914;28;20294;-70
2022/10/10 05:33:31;;;;;;;;;;;9.30;99.90;;;;;;5033146;28;19909;-68
2022/10/10 05:36:10;;;;;;;;;;;9.30;99.90;;;;;;5032484;28;19916;-70
2022/10/10 05:38:36;;;;;;;;;;;9.30;99.90;;;;;;5032088;28;19905;-68
2022/10/10 05:41:02;;;;;;;;;;;9.30;99.90;;;;;;5033118;28;20262;-69
2022/10/10 05:43:27;;;;;;;;;;;9.30;99.90;;;;;;5033058;28;20013;-69
2022/10/10 05:45:53;;;;;;;;;;;9.20;99.90;;;;;;5032730;28;19913;-69
2022/10/10 05:48:18;;;;;;;;;;;9.20;99.90;;;;;;5033174;28;19916;-70
2022/10/10 05:50:46;;;;;;;;;;;9.20;99.90;;;;;;5032494;28;19913;-69
2022/10/10 05:53:12;;;;;;;;;;;9.20;99.90;;;;;;5030803;28;19963;-68
2022/10/10 05:55:37;;;;;;;;;;;9.20;99.90;;;;;;5032394;28;20374;-69
2022/10/10 05:58:03;;;;;;;;;;;9.20;99.90;;;;;;5032350;28;19936;-68
2022/10/10 06:00:29;;;;;;;;;;;9.20;99.90;;;;;;5035215;28;19917;-69
2022/10/10 06:02:57;;;;;;;;;;;9.20;99.90;;;;;;5052868;28;20407;-68
2022/10/10 06:05:23;;;;;;;;;;;9.20;99.90;;;;;;5050538;28;19916;-69
2022/10/10 06:07:48;;;;;;;;;;;9.20;99.90;;;;;;5033149;28;19905;-69
2022/10/10 06:10:14;;;;;;;;;;;9.20;99.90;;;;;;5039101;28;19936;-69
2022/10/10 06:12:39;;;;;;;;;;;9.20;99.90;;;;;;5032281;28;19927;-69
2022/10/10 06:15:05;;;;;;;;;;;9.30;99.90;;;;;;5032863;28;20007;-70
2022/10/10 06:17:30;;;;;;;;;;;9.30;99.90;;;;;;5032234;28;19922;-69
2022/10/10 06:19:56;;;;;;;;;;;9.30;99.90;;;;;;5032394;28;19958;-68
2022/10/10 06:22:21;;;;;;;;;;;9.30;99.90;;;;;;5032412;28;19966;-68
2022/10/10 06:24:47;;;;;;;;;;;9.30;99.90;;;;;;5029371;28;19921;-67
2022/10/10 06:27:12;;;;;;;;;;;9.40;99.90;;;;;;5032204;28;20369;-68
2022/10/10 06:29:38;;;;;;;;;;;9.40;99.90;;;;;;5031726;28;19909;-68
2022/10/10 06:32:03;;;;;;;;;;;9.40;99.90;;;;;;5031872;28;19943;-68
2022/10/10 06:34:29;;;;;;;;;;;9.50;99.90;;;;;;5032638;28;19905;-69
2022/10/10 06:36:54;;;;;;;;;;;9.50;99.90;;;;;;5012373;28;19936;-68
2022/10/10 06:39:20;;;;;;;;;;;9.60;99.90;;;;;;5031496;28;20342;-68
2022/10/10 06:41:47;;;;;;;;;;;9.70;99.90;;;;;;5032226;28;19964;-69
2022/10/10 06:44:12;;;;;;;;;;;9.70;99.90;;;;;;5031887;28;19945;-70
2022/10/10 06:46:38;;;;;;;;;;;9.80;99.90;;;;;;5032362;28;19908;-70
2022/10/10 06:49:03;;;;;;;;;;;9.80;99.90;;;;;;5032069;28;19942;-69
2022/10/10 06:51:29;;;;;;;;;;;9.90;99.90;;;;;;5030764;28;20385;-69
2022/10/10 06:53:56;;;;;;;;;;;10.00;99.90;;;;;;5032012;28;20343;-69
2022/10/10 06:56:21;;;;;;;;;;;10.10;99.90;;;;;;5031966;28;19916;-69
2022/10/10 06:58:47;;;;;;;;;;;10.10;99.90;;;;;;5031739;28;19971;-69
2022/10/10 07:01:13;;;;;;;;;;;10.10;99.90;;;;;;5031935;28;19913;-69
2022/10/10 07:03:38;;;;;;;;;;;10.20;99.90;;;;;;5031645;28;20431;-69
2022/10/10 07:06:09;;;;;;;;;;;10.30;99.90;;;;;;5030227;28;19916;-70
2022/10/10 07:08:35;;;;;;;;;;;10.40;99.90;;;;;;5030835;28;20599;-69
2022/10/10 07:11:01;;;;;;;;;;;10.60;99.90;;;;;;5031562;28;20263;-69
2022/10/10 07:13:27;;;;;;;;;;;10.70;99.90;;;;;;5032250;28;19912;-69
2022/10/10 07:15:52;;;;;;;;;;;10.90;99.90;;;;;;5032017;28;20258;-69
2022/10/10 07:18:18;;;;;;;;;;;11.00;99.90;;;;;;5032320;28;19920;-68
2022/10/10 07:20:44;;;;;;;;;;;11.10;99.90;;;;;;5031994;28;19909;-69
2022/10/10 07:23:09;;;;;;;;;;;11.20;99.90;;;;;;5034821;28;19913;-70
2022/10/10 07:25:38;;;;;;;;;;;11.40;99.90;;;;;;5034795;28;19913;-70
2022/10/10 07:28:04;;;;;;;;;;;11.40;99.90;;;;;;5035375;28;20054;-71
2022/10/10 07:30:29;;;;;;;;;;;11.50;99.90;;;;;;5035211;28;19996;-71
2022/10/10 07:32:55;;;;;;;;;;;11.60;99.90;;;;;;5035436;28;19913;-69
2022/10/10 07:35:21;;;;;;;;;;;11.70;99.90;;;;;;5035243;28;20255;-70
2022/10/10 07:37:47;;;;;;;;;;;11.80;99.90;;;;;;5033899;28;19959;-69
2022/10/10 07:40:12;;;;;;;;;;;12.00;99.90;;;;;;5035328;28;19913;-69
2022/10/10 07:42:38;;;;;;;;;;;12.10;99.90;;;;;;5035176;28;19999;-69
2022/10/10 07:45:04;;;;;;;;;;;12.20;99.90;;;;;;5033443;28;19917;-69
2022/10/10 07:47:29;;;;;;;;;;;12.30;99.90;;;;;;5035338;28;19919;-69
2022/10/10 07:49:55;;;;;;;;;;;12.50;99.90;;;;;;5035115;28;19905;-69
2022/10/10 07:52:20;;;;;;;;;;;12.60;99.90;;;;;;5034142;28;19920;-70
2022/10/10 07:54:46;;;;;;;;;;;12.60;99.90;;;;;;5035181;28;20039;-69
2022/10/10 07:57:11;;;;;;;;;;;12.60;99.90;;;;;;5034960;28;19912;-69
2022/10/10 07:59:36;;;;;;;;;;;12.70;99.90;;;;;;5034638;28;19908;-69
2022/10/10 08:02:02;;;;;;;;;;;12.60;99.90;;;;;;5032970;28;19916;-69
2022/10/10 08:04:27;;;;;;;;;;;12.70;99.90;;;;;;5034354;28;20012;-68
2022/10/10 08:06:53;;;;;;;;;;;12.70;99.90;;;;;;5034764;28;19932;-68
2022/10/10 08:09:18;;;;;;;;;;;12.80;99.90;;;;;;5034224;28;19936;-70
2022/10/10 08:11:44;;;;;;;;;;;12.80;99.90;;;;;;5034286;28;19917;-69
2022/10/10 08:14:28;;;;;;;;;;;12.80;99.90;;;;;;5034709;28;19909;-71
2022/10/10 08:16:55;;;;;;;;;;;12.90;99.90;;;;;;5034837;28;19905;-70
2022/10/10 08:19:21;;;;;;;;;;;12.90;99.90;;;;;;5034459;28;19948;-69
2022/10/10 08:21:46;;;;;;;;;;;12.90;99.90;;;;;;5034507;28;20298;-69
2022/10/10 08:24:12;;;;;;;;;;;13.00;99.90;;;;;;5033125;28;19917;-69
2022/10/10 08:26:37;;;;;;;;;;;13.00;99.90;;;;;;5024329;28;19905;-71
2022/10/10 08:29:03;;;;;;;;;;;13.10;99.90;;;;;;5034170;28;19912;-70
2022/10/10 08:31:30;;;;;;;;;;;13.20;99.90;;;;;;5033439;28;19905;-70
2022/10/10 08:33:55;;;;;;;;;;;13.30;99.90;;;;;;5033032;28;20294;-69
2022/10/10 08:36:22;;;;;;;;;;;13.40;99.90;;;;;;5034409;28;19917;-69
2022/10/10 08:38:47;;;;;;;;;;;13.60;99.90;;;;;;5034440;28;20351;-69
2022/10/10 08:41:33;;;;;;;;;;;13.80;99.90;;;;;;5034844;28;20374;-70
2022/10/10 08:44:01;;;;;;;;;;;13.90;99.90;;;;;;5034040;28;19912;-69
2022/10/10 08:46:26;;;;;;;;;;;13.90;99.90;;;;;;5034236;28;19931;-69
2022/10/10 08:48:54;;;;;;;;;;;13.90;99.90;;;;;;5034500;28;19912;-70
2022/10/10 08:51:25;;;;;;;;;;;13.80;99.90;;;;;;5034173;28;19905;-69
2022/10/10 08:53:53;;;;;;;;;;;13.90;99.90;;;;;;5033864;28;19973;-70
2022/10/10 08:56:26;;;;;;;;;;;13.80;99.90;;;;;;5033588;28;20009;-70
2022/10/10 08:58:54;;;;;;;;;;;13.90;99.90;;;;;;5029243;28;20290;-71
2022/10/10 09:01:23;;;;;;;;;;;14.00;99.90;;;;;;5033628;28;20358;-70
2022/10/10 09:03:53;;;;;;;;;;;14.10;99.90;;;;;;5033547;28;20000;-69
2022/10/10 09:06:21;;;;;;;;;;;14.30;99.90;;;;;;5033984;28;20381;-70
2022/10/10 09:09:02;;;;;;;;;;;14.60;99.90;;;;;;5033681;28;19908;-68
2022/10/10 09:11:33;;;;;;;;;;;14.90;99.90;;;;;;5033938;28;19928;-69
2022/10/10 09:14:02;;;;;;;;;;;15.10;99.90;;;;;;5033658;28;20255;-71
2022/10/10 09:16:38;;;;;;;;;;;15.30;99.90;;;;;;5033484;28;20007;-70
2022/10/10 09:19:23;;;;;;;;;;;15.40;99.90;;;;;;5033619;28;19952;-70
2022/10/10 09:21:50;;;;;;;;;;;15.40;99.90;;;;;;5025169;28;19909;-69
2022/10/10 09:24:21;;;;;;;;;;;15.50;99.90;;;;;;5031680;28;19950;-71
2022/10/10 09:26:51;;;;;;;;;;;15.60;99.90;;;;;;5033094;28;19909;-69
2022/10/10 09:29:24;;;;;;;;;;;15.70;99.90;;;;;;5031132;28;19909;-70
2022/10/10 09:31:52;;;;;;;;;;;16.00;99.90;;;;;;5033225;28;19909;-68
2022/10/10 09:34:41;;;;;;;;;;;16.00;99.90;;;;;;5033186;28;19905;-71
2022/10/10 09:37:14;;;;;;;;;;;16.00;99.90;;;;;;5013059;28;20397;-70
2022/10/10 09:39:46;;;;;;;;;;;16.10;99.90;;;;;;5032875;28;19905;-68
2022/10/10 09:42:16;;;;;;;;;;;16.20;99.90;;;;;;5033194;28;19956;-70
2022/10/10 09:44:42;;;;;;;;;;;16.40;99.90;;;;;;5030774;28;20012;-69
2022/10/10 09:47:11;;;;;;;;;;;16.60;99.90;;;;;;5032319;28;20342;-70
2022/10/10 09:49:36;;;;;;;;;;;16.80;99.90;;;;;;5032746;28;19905;-69
2022/10/10 09:52:13;;;;;;;;;;;17.00;99.90;;;;;;5032606;28;19909;-70
2022/10/10 09:54:39;;;;;;;;;;;17.10;99.90;;;;;;5032725;28;19908;-71
2022/10/10 09:57:05;;;;;;;;;;;17.10;99.90;;;;;;5032508;28;19932;-71
2022/10/10 09:59:40;;;;;;;;;;;17.00;99.90;;;;;;5042118;28;19959;-70
2022/10/10 10:02:23;;;;;;;;;;;16.90;99.90;;;;;;5028798;28;19917;-69
2022/10/10 10:04:49;;;;;;;;;;;16.70;99.90;;;;;;5034067;28;19909;-71
2022/10/10 10:07:23;;;;;;;;;;;16.60;99.90;;;;;;5015831;28;19956;-69
2022/10/10 10:09:59;;;;;;;;;;;16.40;99.90;;;;;;5030086;28;19943;-70
2022/10/10 10:12:29;;;;;;;;;;;16.30;99.90;;;;;;5032664;28;20016;-70
2022/10/10 10:14:59;;;;;;;;;;;16.20;99.90;;;;;;5032333;28;19905;-70
2022/10/10 10:17:25;;;;;;;;;;;16.20;99.90;;;;;;5030389;28;20256;-70
2022/10/10 10:19:51;;;;;;;;;;;16.30;99.90;;;;;;5032273;28;19971;-69
2022/10/10 10:22:25;;;;;;;;;;;16.20;99.90;;;;;;5032454;28;19905;-70
2022/10/10 10:24:51;;;;;;;;;;;16.30;99.90;;;;;;5030785;28;19913;-70
2022/10/10 10:27:17;;;;;;;;;;;16.40;99.90;;;;;;5030804;28;19959;-69
2022/10/10 10:29:47;;;;;;;;;;;16.50;99.90;;;;;;5029621;28;19920;-69
2022/10/10 10:32:32;;;;;;;;;;;16.50;99.90;;;;;;5032291;28;20355;-68
2022/10/10 10:35:03;;;;;;;;;;;16.60;99.90;;;;;;5032095;28;19996;-68
2022/10/10 10:37:28;;;;;;;;;;;16.70;99.90;;;;;;5030669;28;20326;-68
2022/10/10 10:40:13;;;;;;;;;;;16.80;99.90;;;;;;5026845;28;19909;-69
2022/10/10 10:42:38;;;;;;;;;;;16.90;99.90;;;;;;5025234;28;20370;-69
2022/10/10 10:45:11;;;;;;;;;;;17.00;99.90;;;;;;5031566;28;19913;-70
2022/10/10 10:48:08;;;;;;;;;;;17.00;99.90;;;;;;5033356;28;20020;-69
2022/10/10 10:50:38;;;;;;;;;;;17.20;99.90;;;;;;5030679;28;19956;-68
2022/10/10 10:53:07;;;;;;;;;;;17.40;99.90;;;;;;5028889;28;19916;-70
2022/10/10 10:55:36;;;;;;;;;;;17.40;99.90;;;;;;5031632;28;19909;-70
2022/10/10 10:58:10;;;;;;;;;;;17.40;99.90;;;;;;5034379;28;19967;-67
2022/10/10 11:00:42;;;;;;;;;;;17.40;99.90;;;;;;5031538;28;19909;-68
2022/10/10 11:03:17;;;;;;;;;;;17.40;99.90;;;;;;5035355;28;19959;-67
2022/10/10 11:06:05;;;;;;;;;;;17.40;99.90;;;;;;5035478;28;19912;-68
2022/10/10 11:08:36;;;;;;;;;;;17.30;99.90;;;;;;5015782;28;20001;-68
2022/10/10 11:11:10;;;;;;;;;;;17.20;99.90;;;;;;5032005;28;20377;-68
2022/10/10 11:13:36;;;;;;;;;;;17.10;99.90;;;;;;5036441;28;19951;-68
2022/10/10 11:16:07;;;;;;;;;;;16.90;99.90;;;;;;5033170;28;20013;-69
2022/10/10 11:18:37;;;;;;;;;;;16.80;99.90;;;;;;5026491;28;19932;-68
2022/10/10 11:21:06;;;;;;;;;;;16.60;99.90;;;;;;5035236;28;19996;-68
2022/10/10 11:23:31;;;;;;;;;;;16.50;99.90;;;;;;5034834;28;19940;-68
2022/10/10 11:26:04;;;;;;;;;;;16.50;99.90;;;;;;5031820;28;20347;-67
2022/10/10 11:28:33;;;;;;;;;;;16.40;99.90;;;;;;5034742;28;19909;-69
2022/10/10 11:31:04;;;;;;;;;;;16.50;99.90;;;;;;5034338;28;20371;-68
2022/10/10 11:33:37;;;;;;;;;;;16.40;99.90;;;;;;5035107;28;20370;-67
2022/10/10 11:36:02;;;;;;;;;;;16.40;99.90;;;;;;5035475;28;20020;-68
2022/10/10 11:38:28;;;;;;;;;;;16.40;99.90;;;;;;5034509;28;20012;-67
2022/10/10 11:41:02;;;;;;;;;;;16.40;99.90;;;;;;5035030;28;19909;-67
2022/10/10 11:43:51;;;;;;;;;;;16.30;99.90;;;;;;5034572;28;19915;-68
2022/10/10 11:46:28;;;;;;;;;;;16.30;99.90;;;;;;5029870;28;19909;-68
2022/10/10 11:48:58;;;;;;;;;;;16.30;99.90;;;;;;5018494;28;19909;-67
2022/10/10 11:51:28;;;;;;;;;;;16.40;99.90;;;;;;5035043;28;19948;-68
2022/10/10 11:53:58;;;;;;;;;;;16.50;99.90;;;;;;5035024;28;19909;-67
2022/10/10 11:56:38;;;;;;;;;;;16.60;99.90;;;;;;5034877;28;19931;-68
2022/10/10 11:59:24;;;;;;;;;;;16.70;99.90;;;;;;5022676;28;19919;-68
2022/10/10 12:01:58;;;;;;;;;;;16.80;99.90;;;;;;5039746;28;19953;-68
2022/10/10 12:04:33;;;;;;;;;;;16.80;99.90;;;;;;5038617;28;19916;-68
2022/10/10 12:07:25;;;;;;;;;;;16.70;99.90;;;;;;5018896;28;20343;-67
2022/10/10 12:09:54;;;;;;;;;;;16.50;99.90;;;;;;5031111;28;20353;-68
2022/10/10 12:12:22;;;;;;;;;;;16.40;99.90;;;;;;5034858;28;19943;-68
2022/10/10 12:14:52;;;;;;;;;;;16.30;99.90;;;;;;5029051;28;19916;-67
2022/10/10 12:17:30;;;;;;;;;;;16.10;99.90;;;;;;5032760;28;19909;-67
2022/10/10 12:20:06;;;;;;;;;;;15.90;99.90;;;;;;5034327;28;19984;-68
2022/10/10 12:22:32;;;;;;;;;;;15.70;99.90;;;;;;5034079;28;19909;-68
2022/10/10 12:25:14;;;;;;;;;;;15.50;99.90;;;;;;5033754;28;19916;-68
2022/10/10 12:27:44;;;;;;;;;;;15.30;99.90;;;;;;5034776;28;19964;-68
2022/10/10 12:30:14;;;;;;;;;;;15.10;99.90;;;;;;5035154;28;19909;-68
2022/10/10 12:32:41;;;;;;;;;;;14.90;99.90;;;;;;5034499;28;19916;-68
2022/10/10 12:35:26;;;;;;;;;;;14.80;99.90;;;;;;5034346;28;20346;-68
2022/10/10 12:38:03;;;;;;;;;;;14.70;99.90;;;;;;5034435;28;19987;-68
2022/10/10 12:40:29;;;;;;;;;;;14.60;99.90;;;;;;5033915;28;19911;-68
2022/10/10 12:42:54;;;;;;;;;;;14.60;99.90;;;;;;5033942;28;20003;-68
2022/10/10 12:45:29;;;;;;;;;;;14.60;99.90;;;;;;5034073;28;19991;-68
2022/10/10 12:48:05;;;;;;;;;;;14.50;99.90;;;;;;5034252;28;19905;-68
2022/10/10 12:50:33;;;;;;;;;;;14.50;99.90;;;;;;5033970;28;20381;-68
2022/10/10 12:53:18;;;;;;;;;;;14.50;99.90;;;;;;5034318;28;19905;-68
2022/10/10 12:55:45;;;;;;;;;;;14.50;99.90;;;;;;5034427;28;19978;-68
2022/10/10 12:58:25;;;;;;;;;;;14.50;99.90;;;;;;5021195;28;19992;-68
2022/10/10 13:00:51;;;;;;;;;;;14.40;99.90;;;;;;5014497;28;20004;-68
2022/10/10 13:03:19;;;;;;;;;;;14.40;99.90;;;;;;5014534;28;20417;-68
2022/10/10 13:05:46;;;;;;;;;;;14.50;99.90;;;;;;5032848;28;19924;-69
2022/10/10 13:08:16;;;;;;;;;;;14.50;99.90;;;;;;5032257;28;20385;-69
2022/10/10 13:10:59;;;;;;;;;;;14.50;99.90;;;;;;5034090;28;19909;-69
2022/10/10 13:13:24;;;;;;;;;;;14.60;99.90;;;;;;5033047;28;19924;-69
2022/10/10 13:15:51;;;;;;;;;;;14.70;99.90;;;;;;5033827;28;19909;-69
2022/10/10 13:18:31;;;;;;;;;;;14.90;99.90;;;;;;5034118;28;19905;-69
2022/10/10 13:20:57;;;;;;;;;;;14.90;99.90;;;;;;5033655;28;19909;-69
2022/10/10 13:23:22;;;;;;;;;;;15.00;99.90;;;;;;5033838;28;19916;-69
2022/10/10 13:25:48;;;;;;;;;;;15.00;99.90;;;;;;5033750;28;20593;-69
2022/10/10 13:28:18;;;;;;;;;;;15.10;99.90;;;;;;5033765;28;19944;-69
2022/10/10 13:30:44;;;;;;;;;;;15.20;99.90;;;;;;5033785;28;19905;-69
2022/10/10 13:33:15;;;;;;;;;;;15.30;99.90;;;;;;5033643;28;19912;-69
2022/10/10 13:35:41;;;;;;;;;;;15.50;99.90;;;;;;5033363;28;19909;-69
2022/10/10 13:38:06;;;;;;;;;;;15.60;99.90;;;;;;5034042;28;19909;-69
2022/10/10 13:40:32;;;;;;;;;;;15.70;99.90;;;;;;5033364;28;19963;-69
2022/10/10 13:42:58;;;;;;;;;;;15.80;99.90;;;;;;5033322;28;19935;-69
2022/10/10 13:45:33;;;;;;;;;;;15.80;99.90;;;;;;5033470;28;20357;-69
2022/10/10 13:47:58;;;;;;;;;;;15.90;99.90;;;;;;5033105;28;20385;-70
2022/10/10 13:50:24;;;;;;;;;;;15.90;99.90;;;;;;5033081;28;19905;-69
2022/10/10 13:52:50;;;;;;;;;;;16.00;99.90;;;;;;5033343;28;19905;-70
2022/10/10 13:55:25;;;;;;;;;;;16.00;99.90;;;;;;5033229;28;19909;-70
2022/10/10 13:57:55;;;;;;;;;;;16.00;99.90;;;;;;5033257;28;19909;-70
2022/10/10 14:00:21;;;;;;;;;;;16.00;99.90;;;;;;5033019;28;19905;-70
2022/10/10 14:02:47;;;;;;;;;;;16.00;99.90;;;;;;5033203;28;19951;-70
2022/10/10 14:05:26;;;;;;;;;;;16.00;99.90;;;;;;5032974;28;20321;-70
2022/10/10 14:07:52;;;;;;;;;;;16.00;99.90;;;;;;5033125;28;19956;-70
2022/10/10 14:10:20;;;;;;;;;;;15.90;99.90;;;;;;5033031;28;19905;-70
2022/10/10 14:12:50;;;;;;;;;;;15.90;99.90;;;;;;5033019;28;19917;-69
2022/10/10 14:15:34;;;;;;;;;;;15.90;99.90;;;;;;5032944;28;20070;-70
2022/10/10 14:18:00;;;;;;;;;;;16.00;99.90;;;;;;5033104;28;19912;-70
2022/10/10 14:20:25;;;;;;;;;;;16.00;99.90;;;;;;5033032;28;19931;-69
2022/10/10 14:22:51;;;;;;;;;;;16.10;99.90;;;;;;5032574;28;20003;-69
2022/10/10 14:25:16;;;;;;;;;;;16.20;99.90;;;;;;5032914;28;19917;-69
2022/10/10 14:27:42;;;;;;;;;;;16.30;99.90;;;;;;5032692;28;20354;-69